Time;durP1;ratioP1;P1;durP2;ratioP2;P2;SDS_P1;SDS_P2;PMS_P1;PMS_P2;Temp;Humidity;BMP_temperature;BMP_pressure;BME280_temperature;BME280_humidity;BME280_pressure;Samples;Min_cycle;Max_cycle;Signal;HPM_P1;HPM_P2
2022/12/17 13:08:22;;;;;;;51.77;21.90;;;-0.10;99.90;;;;;;5074087;28;20203;-58
2022/12/17 13:10:52;;;;;;;50.80;21.13;;;-0.10;99.90;;;;;;5073440;28;20274;-57
2022/12/17 13:13:29;;;;;;;50.80;21.20;;;-0.10;99.90;;;;;;5072387;28;20941;-57
2022/12/17 13:16:14;;;;;;;48.67;20.87;;;0.00;99.90;;;;;;5067016;28;20697;-56
2022/12/17 13:18:41;;;;;;;54.23;22.13;;;0.00;99.90;;;;;;5071800;28;21191;-56
2022/12/17 13:21:14;;;;;;;56.60;21.50;;;0.00;99.90;;;;;;5068463;28;20756;-56
2022/12/17 13:23:41;;;;;;;54.07;22.87;;;0.20;99.90;;;;;;5073641;28;20214;-55
2022/12/17 13:26:41;;;;;;;49.67;23.40;;;0.30;99.90;;;;;;5075752;28;20382;-60
2022/12/17 13:29:18;;;;;;;60.93;22.87;;;0.20;99.90;;;;;;5061927;28;20204;-56
2022/12/17 13:32:21;;;;;;;47.90;21.47;;;0.20;99.90;;;;;;5062848;28;20683;-54
2022/12/17 13:34:47;;;;;;;50.20;20.80;;;0.00;99.90;;;;;;5049376;28;20695;-55
2022/12/17 13:37:17;;;;;;;49.03;21.87;;;-0.10;99.90;;;;;;5070985;28;20895;-57
2022/12/17 13:39:49;;;;;;;51.07;21.60;;;-0.30;99.90;;;;;;5075760;28;20219;-57
2022/12/17 13:42:31;;;;;;;46.97;21.90;;;-0.30;99.90;;;;;;5071982;28;20217;-56
2022/12/17 13:44:58;;;;;;;52.57;22.10;;;-0.30;99.90;;;;;;5064315;28;20316;-56
2022/12/17 13:47:29;;;;;;;51.87;23.50;;;-0.30;99.90;;;;;;5071936;28;20202;-56
2022/12/17 13:49:58;;;;;;;45.27;21.03;;;-0.30;99.90;;;;;;5072093;28;21011;-55
2022/12/17 13:52:45;;;;;;;56.60;22.80;;;-0.10;99.90;;;;;;5074598;28;20209;-54
2022/12/17 13:55:21;;;;;;;57.90;24.20;;;0.00;99.90;;;;;;5078013;28;20205;-56
2022/12/17 13:57:49;;;;;;;55.53;22.90;;;-0.10;99.90;;;;;;5074409;28;20874;-55
2022/12/17 14:00:23;;;;;;;59.87;24.57;;;-0.10;99.90;;;;;;5074541;28;20201;-56
2022/12/17 14:02:51;;;;;;;47.70;21.53;;;0.00;99.90;;;;;;5075117;28;20212;-57
2022/12/17 14:05:27;;;;;;;50.13;21.83;;;0.10;99.90;;;;;;5074356;28;20670;-56
2022/12/17 14:07:58;;;;;;;49.63;21.53;;;0.10;99.90;;;;;;5076636;28;20571;-57
2022/12/17 14:10:26;;;;;;;49.07;21.80;;;0.20;99.90;;;;;;5077059;28;20236;-57
2022/12/17 14:13:09;;;;;;;54.77;22.87;;;0.10;99.90;;;;;;5074342;28;20290;-55
2022/12/17 14:15:36;;;;;;;47.67;21.23;;;0.10;99.90;;;;;;5074755;28;20293;-56
2022/12/17 14:18:03;;;;;;;51.60;22.30;;;0.10;99.90;;;;;;5068074;28;20202;-56
2022/12/17 14:20:34;;;;;;;43.40;21.53;;;0.20;99.90;;;;;;5056270;28;20237;-57
2022/12/17 14:23:05;;;;;;;47.00;21.23;;;0.10;99.90;;;;;;5080365;28;20621;-59
2022/12/17 14:25:36;;;;;;;42.13;19.87;;;-0.20;99.90;;;;;;5079028;28;20228;-56
2022/12/17 14:28:31;;;;;;;48.17;21.00;;;-0.10;99.90;;;;;;5057926;28;20190;-58
2022/12/17 14:31:22;;;;;;;37.43;18.53;;;-0.10;99.90;;;;;;5054916;28;20197;-56
2022/12/17 14:34:00;;;;;;;35.47;17.73;;;-0.30;99.90;;;;;;5072887;28;20193;-56
2022/12/17 14:36:28;;;;;;;40.27;19.20;;;-0.30;99.90;;;;;;5074270;28;20286;-56
2022/12/17 14:38:58;;;;;;;49.73;21.77;;;-0.50;99.90;;;;;;5055253;28;20195;-55
2022/12/17 14:44:19;;;;;;;44.10;20.43;;;-0.20;99.90;;;;;;5073900;28;20217;-57
2022/12/17 14:46:48;;;;;;;42.83;20.20;;;-0.20;99.90;;;;;;5073697;28;20207;-56
2022/12/17 14:49:20;;;;;;;47.60;21.07;;;-0.20;99.90;;;;;;5074965;28;20193;-56
2022/12/17 14:51:49;;;;;;;42.10;19.70;;;0.00;99.90;;;;;;5059991;28;20202;-56
2022/12/17 14:54:24;;;;;;;50.97;21.40;;;-0.30;99.90;;;;;;5057625;28;20213;-56
2022/12/17 14:56:54;;;;;;;47.53;20.50;;;-0.30;99.90;;;;;;5073517;28;20300;-57
2022/12/17 14:59:24;;;;;;;47.20;20.80;;;-0.10;99.90;;;;;;5072473;28;20209;-56
2022/12/17 15:01:52;;;;;;;47.53;20.37;;;-0.20;99.90;;;;;;5073449;28;20210;-56
2022/12/17 15:04:22;;;;;;;41.33;18.17;;;-0.30;99.90;;;;;;5072612;28;20236;-54
2022/12/17 15:06:52;;;;;;;41.50;18.97;;;-0.20;99.90;;;;;;5074066;28;20197;-58
2022/12/17 15:09:19;;;;;;;40.87;18.97;;;-0.10;99.90;;;;;;5041028;28;20557;-57
2022/12/17 15:11:46;;;;;;;42.67;18.60;;;-0.10;99.90;;;;;;5074446;28;20225;-56
2022/12/17 15:14:13;;;;;;;43.73;19.60;;;-0.10;99.90;;;;;;5054721;28;20219;-59
2022/12/17 15:16:40;;;;;;;46.80;19.43;;;-0.10;99.90;;;;;;5074537;28;20192;-56
2022/12/17 15:19:06;;;;;;;48.47;21.07;;;-0.30;99.90;;;;;;5073945;28;20201;-55
2022/12/17 15:21:33;;;;;;;42.60;18.77;;;-0.10;99.90;;;;;;5074157;28;20321;-57
2022/12/17 15:24:00;;;;;;;44.53;18.87;;;-0.10;99.90;;;;;;5071667;28;20195;-55
2022/12/17 15:26:27;;;;;;;42.83;19.60;;;-0.20;99.90;;;;;;5057850;28;20239;-56
2022/12/17 15:28:54;;;;;;;45.87;21.10;;;-0.20;99.90;;;;;;5073654;28;20568;-54
2022/12/17 15:31:21;;;;;;;50.43;20.13;;;-0.30;99.90;;;;;;5072425;28;20305;-56
2022/12/17 15:33:53;;;;;;;43.80;20.00;;;-0.30;99.90;;;;;;5073107;28;20195;-56
2022/12/17 15:36:19;;;;;;;41.03;19.37;;;-0.30;99.90;;;;;;5073702;28;20213;-56
2022/12/17 15:38:46;;;;;;;43.03;18.83;;;-0.30;99.90;;;;;;5073115;28;20320;-55
2022/12/17 15:43:58;;;;;;;45.53;20.77;;;-0.40;99.90;;;;;;5075733;28;20205;-56
2022/12/17 15:46:25;;;;;;;46.83;18.80;;;-0.20;99.90;;;;;;5073765;28;20301;-56
2022/12/17 15:48:52;;;;;;;45.93;20.47;;;-0.20;99.90;;;;;;5073305;28;20210;-55
2022/12/17 15:51:19;;;;;;;46.17;19.07;;;-0.10;99.90;;;;;;5061003;28;20260;-59
2022/12/17 15:53:47;;;;;;;47.50;20.23;;;-0.30;99.90;;;;;;5067451;28;20201;-57
2022/12/17 15:56:20;;;;;;;44.50;19.67;;;-0.40;99.90;;;;;;5065971;28;20228;-57
2022/12/17 15:58:47;;;;;;;43.97;18.03;;;-0.30;99.90;;;;;;5074005;28;20632;-56
2022/12/17 16:01:14;;;;;;;47.20;20.30;;;-0.40;99.90;;;;;;5074470;28;20299;-61
2022/12/17 16:03:41;;;;;;;43.17;18.93;;;-0.50;99.90;;;;;;5074338;28;20213;-57
2022/12/17 16:06:09;;;;;;;46.03;19.27;;;-0.60;99.90;;;;;;5075056;28;20314;-55
2022/12/17 16:08:39;;;;;;;48.77;18.63;;;-0.60;99.90;;;;;;5052431;28;20205;-55
2022/12/17 16:11:08;;;;;;;48.97;21.00;;;-0.70;99.90;;;;;;5074893;28;20285;-55
2022/12/17 16:13:35;;;;;;;51.73;21.87;;;-0.60;99.90;;;;;;5073197;28;20227;-57
2022/12/17 16:16:03;;;;;;;43.33;18.80;;;-0.50;99.90;;;;;;5073002;28;20237;-57
2022/12/17 16:18:30;;;;;;;50.77;20.20;;;-0.60;99.90;;;;;;5073157;28;20231;-56
2022/12/17 16:21:05;;;;;;;49.70;20.63;;;-0.50;99.90;;;;;;5075049;28;20200;-55
2022/12/17 16:23:32;;;;;;;49.43;19.90;;;-0.50;99.90;;;;;;5077694;28;20210;-58
2022/12/17 16:26:01;;;;;;;52.20;21.40;;;-0.40;99.90;;;;;;5074628;28;20708;-55
2022/12/17 16:28:29;;;;;;;50.77;21.23;;;-0.40;99.90;;;;;;5073097;28;20193;-57
2022/12/17 16:31:02;;;;;;;55.23;21.43;;;-0.40;99.90;;;;;;5065169;28;20201;-56
2022/12/17 16:33:38;;;;;;;52.50;19.57;;;-0.50;99.90;;;;;;5074647;28;20216;-57
2022/12/17 16:36:06;;;;;;;47.63;19.10;;;-0.50;99.90;;;;;;5074528;28;20205;-55
2022/12/17 16:38:33;;;;;;;43.73;19.27;;;-0.50;99.90;;;;;;5073927;28;20208;-57
2022/12/17 16:41:02;;;;;;;45.40;19.00;;;-0.70;99.90;;;;;;5062871;28;20375;-55
2022/12/17 16:43:32;;;;;;;54.20;22.83;;;-0.60;99.90;;;;;;5073207;28;20682;-55
2022/12/17 16:46:00;;;;;;;44.97;18.63;;;-0.70;99.90;;;;;;5072723;28;20975;-59
2022/12/17 16:48:27;;;;;;;50.97;20.17;;;-0.80;99.90;;;;;;5074623;28;20201;-66
2022/12/17 16:50:54;;;;;;;48.50;20.37;;;-0.70;99.90;;;;;;5074589;28;20564;-58
2022/12/17 16:53:21;;;;;;;47.97;19.30;;;-0.80;99.90;;;;;;5073768;28;20208;-55
2022/12/17 16:55:48;;;;;;;51.37;20.73;;;-0.90;99.90;;;;;;5076848;28;21106;-56
2022/12/17 16:58:16;;;;;;;97.63;47.23;;;-1.00;99.90;;;;;;5075063;28;20656;-56
2022/12/17 17:00:45;;;;;;;41.80;16.80;;;-0.90;99.90;;;;;;5076978;28;20200;-55
2022/12/17 17:03:12;;;;;;;44.37;17.90;;;-1.20;99.90;;;;;;5077074;28;20204;-55
2022/12/17 17:05:39;;;;;;;44.33;18.63;;;-1.50;99.90;;;;;;5076167;28;20799;-57
2022/12/17 17:08:06;;;;;;;49.07;18.40;;;-1.30;99.90;;;;;;5076978;28;21115;-56
2022/12/17 17:10:35;;;;;;;48.60;18.37;;;-1.40;99.90;;;;;;5078937;28;20610;-56
2022/12/17 17:13:03;;;;;;;46.03;18.87;;;-1.50;99.90;;;;;;5076905;28;20213;-55
2022/12/17 17:15:30;;;;;;;45.70;18.03;;;-1.60;99.90;;;;;;5060961;28;20346;-55
2022/12/17 17:17:57;;;;;;;40.80;17.13;;;-1.50;99.90;;;;;;5069741;28;20375;-55
2022/12/17 17:20:30;;;;;;;50.13;17.80;;;-1.60;99.90;;;;;;5048632;28;20212;-54
2022/12/17 17:22:58;;;;;;;48.27;19.20;;;-1.80;99.90;;;;;;5073328;28;20204;-56
2022/12/17 17:25:25;;;;;;;49.87;20.17;;;-1.80;99.90;;;;;;5078317;28;20244;-56
2022/12/17 17:28:12;;;;;;;42.47;16.90;;;-1.70;99.90;;;;;;5060706;28;20205;-55
2022/12/17 17:30:39;;;;;;;43.63;19.43;;;-1.80;99.90;;;;;;5074360;28;20215;-55
2022/12/17 17:33:06;;;;;;;49.93;19.43;;;-1.60;99.90;;;;;;5058398;28;20200;-55
2022/12/17 17:35:32;;;;;;;44.73;18.60;;;-1.60;99.90;;;;;;5077936;28;20204;-54
2022/12/17 17:37:59;;;;;;;54.83;21.67;;;-1.80;99.90;;;;;;5077485;28;20369;-55
2022/12/17 17:40:26;;;;;;;45.80;20.93;;;-1.60;99.90;;;;;;5077863;28;21846;-55
2022/12/17 17:42:53;;;;;;;52.93;22.37;;;-1.60;99.90;;;;;;5074622;28;20205;-55
2022/12/17 17:45:20;;;;;;;56.87;21.03;;;-1.70;99.90;;;;;;5057059;28;20301;-55
2022/12/17 17:47:46;;;;;;;60.30;21.27;;;-1.60;99.90;;;;;;5076488;28;20665;-56
2022/12/17 17:50:13;;;;;;;53.83;20.87;;;-1.60;99.90;;;;;;5078144;28;20195;-55
2022/12/17 17:52:40;;;;;;;56.43;21.47;;;-1.40;99.90;;;;;;5077094;28;20297;-55
2022/12/17 17:55:07;;;;;;;49.50;20.17;;;-1.40;99.90;;;;;;5076861;28;20207;-55
2022/12/17 17:57:34;;;;;;;51.20;21.03;;;-1.30;99.90;;;;;;5073552;28;20297;-55
2022/12/17 18:00:01;;;;;;;58.43;21.77;;;-1.20;99.90;;;;;;5075884;28;20227;-55
2022/12/17 18:02:28;;;;;;;62.27;22.23;;;-1.30;99.90;;;;;;5075808;28;20649;-58
2022/12/17 18:04:55;;;;;;;52.30;21.33;;;-1.20;99.90;;;;;;5075825;28;20228;-55
2022/12/17 18:07:22;;;;;;;52.83;20.77;;;-1.50;99.90;;;;;;5073060;28;20316;-55
2022/12/17 18:09:52;;;;;;;53.47;21.43;;;-1.70;99.90;;;;;;5074905;28;20215;-57
2022/12/17 18:15:05;;;;;;;47.07;19.43;;;-1.80;99.90;;;;;;5074575;28;20237;-55
2022/12/17 18:17:48;;;;;;;56.33;21.10;;;-1.60;99.90;;;;;;5076575;28;20212;-56
2022/12/17 18:20:15;;;;;;;50.63;19.90;;;-1.90;99.90;;;;;;5077079;28;20205;-56
2022/12/17 18:22:44;;;;;;;59.47;22.50;;;-1.80;99.90;;;;;;5070215;28;20378;-56
2022/12/17 18:25:12;;;;;;;56.63;22.07;;;-1.60;99.90;;;;;;5071238;28;20511;-57
2022/12/17 18:27:39;;;;;;;65.00;21.93;;;-1.60;99.90;;;;;;5073907;28;20198;-56
2022/12/17 18:30:06;;;;;;;59.90;21.50;;;-1.50;99.90;;;;;;5066272;28;20199;-56
2022/12/17 18:32:33;;;;;;;59.33;23.93;;;-1.40;99.90;;;;;;5074309;28;20292;-56
2022/12/17 18:34:59;;;;;;;63.43;24.60;;;-1.40;99.90;;;;;;5058347;28;20607;-55
2022/12/17 18:37:26;;;;;;;67.83;23.10;;;-1.30;99.90;;;;;;5057833;28;20210;-55
2022/12/17 18:39:53;;;;;;;64.53;23.00;;;-1.40;99.90;;;;;;5074649;28;20322;-55
2022/12/17 18:45:06;;;;;;;54.37;20.60;;;-1.50;99.90;;;;;;5076412;28;20713;-56
2022/12/17 18:47:33;;;;;;;57.63;22.17;;;-1.50;99.90;;;;;;5074014;28;20283;-56
2022/12/17 18:49:59;;;;;;;63.00;24.10;;;-1.60;99.90;;;;;;5075550;28;20299;-59
2022/12/17 18:52:26;;;;;;;54.70;20.57;;;-1.60;99.90;;;;;;5075777;28;20560;-55
2022/12/17 18:54:53;;;;;;;56.50;21.73;;;-1.60;99.90;;;;;;5074356;28;21777;-57
2022/12/17 18:57:20;;;;;;;52.27;19.50;;;-1.60;99.90;;;;;;5055558;28;20207;-55
2022/12/17 18:59:47;;;;;;;52.80;20.50;;;-1.60;99.90;;;;;;5056430;28;20724;-58
2022/12/17 19:02:14;;;;;;;53.17;20.80;;;-1.70;99.90;;;;;;5074445;28;20206;-57
2022/12/17 19:04:41;;;;;;;53.07;21.53;;;-1.70;99.90;;;;;;5051449;28;20213;-55
2022/12/17 19:07:09;;;;;;;55.23;21.87;;;-1.80;99.90;;;;;;5075855;28;20332;-58
2022/12/17 19:09:38;;;;;;;66.63;21.90;;;-1.70;99.90;;;;;;5073792;28;20218;-56
2022/12/17 19:12:07;;;;;;;63.37;23.53;;;-1.60;99.90;;;;;;5075023;28;20695;-58
2022/12/17 19:14:34;;;;;;;58.73;21.93;;;-1.50;99.90;;;;;;5074631;28;20636;-56
2022/12/17 19:17:01;;;;;;;64.93;23.37;;;-1.40;99.90;;;;;;5072863;28;20201;-56
2022/12/17 19:19:28;;;;;;;57.67;19.87;;;-1.50;99.90;;;;;;5072546;28;20293;-56
2022/12/17 19:21:58;;;;;;;64.10;23.90;;;-1.60;99.90;;;;;;5055210;28;20203;-56
2022/12/17 19:24:25;;;;;;;56.17;21.10;;;-1.70;99.90;;;;;;5074671;28;20225;-56
2022/12/17 19:26:52;;;;;;;60.43;21.30;;;-1.60;99.90;;;;;;5055163;28;20243;-57
2022/12/17 19:29:19;;;;;;;59.00;21.67;;;-1.70;99.90;;;;;;5070192;28;20204;-57
2022/12/17 19:31:46;;;;;;;49.47;19.43;;;-1.80;99.90;;;;;;5071142;28;20254;-55
2022/12/17 19:34:16;;;;;;;58.20;21.93;;;-1.70;99.90;;;;;;5058751;28;21145;-56
2022/12/17 19:36:43;;;;;;;50.07;20.50;;;-1.60;99.90;;;;;;5077252;28;20211;-59
2022/12/17 19:39:13;;;;;;;64.83;22.87;;;-1.60;99.90;;;;;;5077894;28;20644;-57
2022/12/17 19:41:40;;;;;;;54.63;21.33;;;-1.50;99.90;;;;;;5060268;28;20196;-56
2022/12/17 19:44:10;;;;;;;55.23;20.87;;;-1.70;99.90;;;;;;4367737;28;10000837;-57
2022/12/17 19:46:38;;;;;;;58.93;22.43;;;-1.70;99.90;;;;;;5064174;28;20214;-55
2022/12/17 19:49:05;;;;;;;58.73;20.77;;;-1.90;99.90;;;;;;5075207;28;20676;-55
2022/12/17 19:51:32;;;;;;;50.27;18.60;;;-1.90;99.90;;;;;;5072932;28;20289;-56
2022/12/17 19:53:59;;;;;;;55.40;19.17;;;-2.20;99.90;;;;;;5060214;28;20715;-56
2022/12/17 19:56:34;;;;;;;62.30;21.30;;;-2.00;99.90;;;;;;5053197;28;20199;-60
2022/12/17 19:59:05;;;;;;;51.80;20.43;;;-1.90;99.90;;;;;;5066367;28;23498;-55
2022/12/17 20:01:35;;;;;;;49.60;19.47;;;-2.00;99.90;;;;;;5065580;28;20215;-56
2022/12/17 20:04:03;;;;;;;57.07;20.70;;;-2.00;99.90;;;;;;5070690;28;20841;-56
2022/12/17 20:06:31;;;;;;;55.97;20.20;;;-2.00;99.90;;;;;;5072989;28;20239;-54
2022/12/17 20:08:59;;;;;;;55.50;19.33;;;-1.70;99.90;;;;;;5072016;28;20231;-55
2022/12/17 20:11:32;;;;;;;51.63;20.47;;;-1.70;99.90;;;;;;5073560;28;20225;-55
2022/12/17 20:14:04;;;;;;;47.43;20.07;;;-1.50;99.90;;;;;;5073372;28;21549;-55
2022/12/17 20:16:42;;;;;;;54.00;21.03;;;-1.50;99.90;;;;;;5070126;28;20199;-55
2022/12/17 20:19:18;;;;;;;57.10;22.93;;;-1.70;99.90;;;;;;5069689;28;20207;-56
2022/12/17 20:21:46;;;;;;;50.50;20.77;;;-1.60;99.90;;;;;;5075656;28;20203;-56
2022/12/17 20:24:14;;;;;;;58.17;21.13;;;-1.50;99.90;;;;;;5052429;28;22447;-55
2022/12/17 20:26:41;;;;;;;49.13;19.17;;;-1.60;99.90;;;;;;5071560;28;20212;-55
2022/12/17 20:29:08;;;;;;;45.90;20.27;;;-1.50;99.90;;;;;;5069940;28;20197;-55
2022/12/17 20:31:35;;;;;;;53.90;20.23;;;-1.50;99.90;;;;;;5066683;28;20206;-55
2022/12/17 20:34:04;;;;;;;49.80;20.33;;;-1.50;99.90;;;;;;5072598;28;20355;-55
2022/12/17 20:36:31;;;;;;;48.80;18.77;;;-1.70;99.90;;;;;;5073740;28;20216;-55
2022/12/17 20:38:59;;;;;;;54.23;20.13;;;-1.70;99.90;;;;;;5069400;28;20236;-55
2022/12/17 20:41:28;;;;;;;50.57;21.40;;;-1.60;99.90;;;;;;5073832;28;20215;-59
2022/12/17 20:43:55;;;;;;;48.63;19.90;;;-1.80;99.90;;;;;;5069152;28;20240;-56
2022/12/17 20:46:23;;;;;;;44.97;18.33;;;-1.80;99.90;;;;;;5068720;28;20215;-56
2022/12/17 20:48:51;;;;;;;46.33;19.20;;;-1.70;99.90;;;;;;5053346;28;20209;-56
2022/12/17 20:51:22;;;;;;;46.07;18.60;;;-1.70;99.90;;;;;;5072612;28;20260;-55
2022/12/17 20:53:49;;;;;;;41.83;18.37;;;-1.60;99.90;;;;;;5073864;28;20226;-55
2022/12/17 20:56:19;;;;;;;45.57;20.17;;;-1.60;99.90;;;;;;5056320;28;20685;-55
2022/12/17 20:58:46;;;;;;;47.33;17.50;;;-1.60;99.90;;;;;;5069439;28;20303;-56
2022/12/17 21:01:18;;;;;;;48.80;19.90;;;-1.80;99.90;;;;;;5071886;28;20285;-54
2022/12/17 21:03:48;;;;;;;47.07;19.40;;;-1.80;99.90;;;;;;5072343;28;20897;-55
2022/12/17 21:06:20;;;;;;;51.80;20.07;;;-1.80;99.90;;;;;;5075302;28;20894;-56
2022/12/17 21:08:49;;;;;;;51.43;19.90;;;-2.00;99.90;;;;;;5073362;28;20208;-56
2022/12/17 21:11:20;;;;;;;46.13;19.50;;;-2.00;99.90;;;;;;5076029;28;20310;-60
2022/12/17 21:13:46;;;;;;;47.67;20.67;;;-2.00;99.90;;;;;;5071533;28;20674;-55
2022/12/17 21:16:17;;;;;;;46.30;18.17;;;-2.00;99.90;;;;;;5069131;28;20387;-56
2022/12/17 21:18:44;;;;;;;45.23;17.73;;;-2.00;99.90;;;;;;5072771;28;20206;-57
2022/12/17 21:21:20;;;;;;;42.67;17.87;;;-2.20;99.90;;;;;;5074494;28;20741;-55
2022/12/17 21:23:47;;;;;;;49.83;17.70;;;-2.10;99.90;;;;;;5071642;28;20354;-55
2022/12/17 21:26:24;;;;;;;40.70;17.93;;;-2.10;99.90;;;;;;5070007;28;20220;-56
2022/12/17 21:28:53;;;;;;;40.50;17.60;;;-2.20;99.90;;;;;;5065129;28;20199;-58
2022/12/17 21:31:25;;;;;;;40.07;16.80;;;-2.20;99.90;;;;;;5068419;28;20219;-56
2022/12/17 21:33:57;;;;;;;40.97;17.13;;;-2.20;99.90;;;;;;5071611;28;21145;-56
2022/12/17 21:36:26;;;;;;;38.63;16.83;;;-2.30;99.90;;;;;;5076420;28;20203;-56
2022/12/17 21:38:53;;;;;;;46.40;20.40;;;-2.30;99.90;;;;;;5069749;28;20213;-55
2022/12/17 21:41:23;;;;;;;35.47;15.87;;;-2.30;99.90;;;;;;5070137;28;20196;-55
2022/12/17 21:43:55;;;;;;;50.40;18.10;;;-2.40;99.90;;;;;;5056816;28;20239;-58
2022/12/17 21:46:22;;;;;;;43.57;18.10;;;-2.30;99.90;;;;;;5068220;28;20551;-57
2022/12/17 21:48:51;;;;;;;31.77;16.67;;;-2.30;99.90;;;;;;5068834;28;20877;-57
2022/12/17 21:51:19;;;;;;;36.10;15.90;;;-2.40;99.90;;;;;;5069793;28;20279;-56
2022/12/17 21:53:46;;;;;;;38.83;15.90;;;-2.50;99.90;;;;;;5069985;28;20258;-56
2022/12/17 21:56:15;;;;;;;39.73;17.23;;;-2.40;99.90;;;;;;5070824;28;20204;-56
2022/12/17 21:58:44;;;;;;;34.50;15.43;;;-2.50;99.90;;;;;;5069973;28;20207;-55
2022/12/17 22:01:12;;;;;;;36.37;15.87;;;-2.40;99.90;;;;;;5068428;28;20206;-56
2022/12/17 22:03:46;;;;;;;35.13;16.00;;;-2.30;99.90;;;;;;5072887;28;20753;-56
2022/12/17 22:06:21;;;;;;;36.23;15.83;;;-2.40;99.90;;;;;;5069150;28;20247;-56
2022/12/17 22:08:49;;;;;;;37.07;16.50;;;-2.20;99.90;;;;;;5066291;28;20203;-56
2022/12/17 22:11:23;;;;;;;39.07;17.23;;;-2.10;99.90;;;;;;5071860;28;20224;-55
2022/12/17 22:14:09;;;;;;;39.50;17.53;;;-2.10;99.90;;;;;;5070265;28;20680;-56
2022/12/17 22:16:47;;;;;;;39.73;17.17;;;-2.10;99.90;;;;;;5070373;28;20214;-56
2022/12/17 22:19:20;;;;;;;37.80;15.97;;;-2.30;99.90;;;;;;5068052;28;20205;-56
2022/12/17 22:21:49;;;;;;;41.73;17.67;;;-2.10;99.90;;;;;;5071774;28;20192;-56
2022/12/17 22:24:19;;;;;;;41.03;17.43;;;-2.10;99.90;;;;;;5068635;28;20215;-55
2022/12/17 22:26:46;;;;;;;46.73;18.67;;;-2.10;99.90;;;;;;5073047;28;20333;-60
2022/12/17 22:32:58;;;;;;;41.70;17.67;;;-2.10;99.90;;;;;;5068403;28;20214;-56
2022/12/17 22:34:47;;;;;;;41.90;17.60;;;-2.30;99.90;;;;;;5067071;28;20204;-56
2022/12/17 22:37:34;;;;;;;36.40;16.77;;;-2.40;99.90;;;;;;5049094;28;20219;-56
2022/12/17 22:40:21;;;;;;;41.27;17.27;;;-2.30;99.90;;;;;;5068054;28;20238;-56
2022/12/17 22:43:29;;;;;;;37.50;16.93;;;-2.50;99.90;;;;;;5068913;28;20641;-57
2022/12/17 22:46:16;;;;;;;41.73;16.73;;;-2.40;99.90;;;;;;5068675;28;20210;-56
2022/12/17 22:48:43;;;;;;;34.80;16.33;;;-2.30;99.90;;;;;;5071561;28;20757;-55
2022/12/17 22:51:10;;;;;;;39.13;16.27;;;-2.30;99.90;;;;;;5066426;28;20584;-55
2022/12/17 22:53:44;;;;;;;42.53;17.73;;;-2.50;99.90;;;;;;5066274;28;20566;-56
2022/12/17 22:56:11;;;;;;;38.47;17.07;;;-2.50;99.90;;;;;;5072993;28;20200;-60
2022/12/17 22:58:58;;;;;;;33.80;16.30;;;-2.40;99.90;;;;;;5070418;28;20365;-57
2022/12/17 23:01:25;;;;;;;37.77;16.73;;;-2.30;99.90;;;;;;5069077;28;20986;-56
2022/12/17 23:03:57;;;;;;;38.97;17.63;;;-2.30;99.90;;;;;;5068921;28;20197;-56
2022/12/17 23:06:25;;;;;;;39.93;17.30;;;-2.30;99.90;;;;;;5069568;28;20789;-55
2022/12/17 23:08:52;;;;;;;45.93;17.50;;;-2.20;99.90;;;;;;5064825;28;20209;-56
2022/12/17 23:11:21;;;;;;;39.63;18.17;;;-2.20;99.90;;;;;;5067872;28;20235;-56
2022/12/17 23:13:49;;;;;;;42.47;17.70;;;-2.30;99.90;;;;;;5066974;28;20204;-56
2022/12/17 23:16:16;;;;;;;42.23;17.33;;;-2.30;99.90;;;;;;5069354;28;20622;-57
2022/12/17 23:18:44;;;;;;;41.23;18.63;;;-2.40;99.90;;;;;;5069199;28;20203;-56
2022/12/17 23:21:14;;;;;;;36.80;17.13;;;-2.50;99.90;;;;;;5066580;28;21112;-56
2022/12/17 23:23:41;;;;;;;38.43;16.73;;;-2.50;99.90;;;;;;5070407;28;20661;-56
2022/12/17 23:26:14;;;;;;;36.87;17.63;;;-2.40;99.90;;;;;;5068231;28;20623;-56
2022/12/17 23:28:41;;;;;;;37.60;17.70;;;-2.50;99.90;;;;;;5050001;28;20816;-56
2022/12/17 23:31:10;;;;;;;43.53;19.13;;;-2.50;99.90;;;;;;5070383;28;20312;-56
2022/12/17 23:33:37;;;;;;;42.00;17.27;;;-2.40;99.90;;;;;;5072550;28;20207;-56
2022/12/17 23:36:10;;;;;;;45.50;17.50;;;-2.40;99.90;;;;;;5069613;28;20207;-55
2022/12/17 23:38:38;;;;;;;41.13;18.63;;;-2.50;99.90;;;;;;5068277;28;20210;-56
2022/12/17 23:41:07;;;;;;;40.63;18.37;;;-2.40;99.90;;;;;;5066283;28;20710;-56
2022/12/17 23:43:34;;;;;;;43.20;19.03;;;-2.40;99.90;;;;;;5068178;28;20289;-56
2022/12/17 23:46:02;;;;;;;50.47;19.73;;;-2.40;99.90;;;;;;5067575;28;20939;-55
2022/12/17 23:48:31;;;;;;;40.30;17.63;;;-2.30;99.90;;;;;;5068506;28;20211;-55
2022/12/17 23:50:58;;;;;;;45.07;18.90;;;-2.50;99.90;;;;;;5068821;28;20236;-55
2022/12/17 23:53:26;;;;;;;36.00;17.27;;;-2.40;99.90;;;;;;5068354;28;20641;-58
2022/12/17 23:55:53;;;;;;;36.43;18.10;;;-2.30;99.90;;;;;;5069472;28;20249;-66
2022/12/17 23:58:21;;;;;;;42.07;17.50;;;-2.30;99.90;;;;;;5067113;28;20199;-55
